sensor_id;sensor_type;location;lat;lon;timestamp;pressure;altitude;pressure_sealevel;temperature;humidity
11487;BME280;10510;47.942;9.442;2023-03-31T00:00:12;94132.72;;;5.90;100.00
11487;BME280;10510;47.942;9.442;2023-03-31T00:02:13;94135.47;;;5.97;100.00
11487;BME280;10510;47.942;9.442;2023-03-31T00:04:14;94133.84;;;6.04;100.00
11487;BME280;10510;47.942;9.442;2023-03-31T00:06:14;94129.78;;;6.09;100.00
11487;BME280;10510;47.942;9.442;2023-03-31T00:08:18;94128.31;;;6.15;100.00
11487;BME280;10510;47.942;9.442;2023-03-31T00:10:18;94119.03;;;6.21;100.00
11487;BME280;10510;47.942;9.442;2023-03-31T00:12:19;94117.38;;;6.28;100.00
11487;BME280;10510;47.942;9.442;2023-03-31T00:14:20;94114.09;;;6.34;100.00
11487;BME280;10510;47.942;9.442;2023-03-31T00:16:20;94109.22;;;6.39;100.00
11487;BME280;10510;47.942;9.442;2023-03-31T00:18:20;94122.50;;;6.44;100.00
11487;BME280;10510;47.942;9.442;2023-03-31T00:20:21;94115.44;;;6.53;100.00
11487;BME280;10510;47.942;9.442;2023-03-31T00:22:22;94107.63;;;6.61;100.00
11487;BME280;10510;47.942;9.442;2023-03-31T00:24:27;94093.78;;;6.69;100.00
11487;BME280;10510;47.942;9.442;2023-03-31T00:26:33;94090.50;;;6.75;100.00
11487;BME280;10510;47.942;9.442;2023-03-31T00:28:34;94090.59;;;6.81;100.00
11487;BME280;10510;47.942;9.442;2023-03-31T00:30:35;94090.09;;;6.86;100.00
11487;BME280;10510;47.942;9.442;2023-03-31T00:32:35;94083.84;;;6.95;100.00
11487;BME280;10510;47.942;9.442;2023-03-31T00:34:36;94079.75;;;7.01;100.00
11487;BME280;10510;47.942;9.442;2023-03-31T00:36:36;94071.41;;;7.05;100.00
11487;BME280;10510;47.942;9.442;2023-03-31T00:38:47;94072.69;;;7.10;100.00
11487;BME280;10510;47.942;9.442;2023-03-31T00:40:47;94068.94;;;7.12;100.00
11487;BME280;10510;47.942;9.442;2023-03-31T00:42:48;94072.00;;;7.16;100.00
11487;BME280;10510;47.942;9.442;2023-03-31T00:45:22;94063.66;;;7.20;100.00
11487;BME280;10510;47.942;9.442;2023-03-31T00:47:24;94056.78;;;7.27;100.00
11487;BME280;10510;47.942;9.442;2023-03-31T00:51:31;94046.31;;;7.36;100.00
11487;BME280;10510;47.942;9.442;2023-03-31T00:53:33;94049.16;;;7.41;100.00
11487;BME280;10510;47.942;9.442;2023-03-31T00:55:41;94040.03;;;7.45;100.00
11487;BME280;10510;47.942;9.442;2023-03-31T00:57:44;94038.69;;;7.49;100.00
11487;BME280;10510;47.942;9.442;2023-03-31T00:59:48;94042.22;;;7.56;100.00
11487;BME280;10510;47.942;9.442;2023-03-31T01:01:50;94025.88;;;7.62;100.00
11487;BME280;10510;47.942;9.442;2023-03-31T01:03:52;94016.09;;;7.64;100.00
11487;BME280;10510;47.942;9.442;2023-03-31T01:06:03;94015.94;;;7.66;100.00
11487;BME280;10510;47.942;9.442;2023-03-31T01:08:05;94018.97;;;7.69;100.00
11487;BME280;10510;47.942;9.442;2023-03-31T01:10:06;94024.81;;;7.71;100.00
11487;BME280;10510;47.942;9.442;2023-03-31T01:12:08;94025.25;;;7.75;100.00
11487;BME280;10510;47.942;9.442;2023-03-31T01:14:09;94027.31;;;7.80;100.00
11487;BME280;10510;47.942;9.442;2023-03-31T01:16:10;94015.72;;;7.82;100.00
11487;BME280;10510;47.942;9.442;2023-03-31T01:18:12;94020.75;;;7.84;100.00
11487;BME280;10510;47.942;9.442;2023-03-31T01:27:19;94014.66;;;7.91;100.00
11487;BME280;10510;47.942;9.442;2023-03-31T01:29:57;94003.41;;;7.91;100.00
11487;BME280;10510;47.942;9.442;2023-03-31T01:34:57;94018.66;;;7.94;100.00
11487;BME280;10510;47.942;9.442;2023-03-31T01:37:05;94030.69;;;7.95;100.00
11487;BME280;10510;47.942;9.442;2023-03-31T01:39:48;94034.28;;;7.94;100.00
11487;BME280;10510;47.942;9.442;2023-03-31T01:47:00;94061.50;;;7.91;100.00
11487;BME280;10510;47.942;9.442;2023-03-31T01:49:15;94053.31;;;7.94;100.00
11487;BME280;10510;47.942;9.442;2023-03-31T01:51:35;94045.94;;;7.98;100.00
11487;BME280;10510;47.942;9.442;2023-03-31T01:56:10;94018.75;;;8.01;100.00
11487;BME280;10510;47.942;9.442;2023-03-31T01:58:23;94010.31;;;7.99;100.00
11487;BME280;10510;47.942;9.442;2023-03-31T02:00:32;94015.00;;;8.03;100.00
11487;BME280;10510;47.942;9.442;2023-03-31T02:02:49;94017.41;;;8.05;100.00
11487;BME280;10510;47.942;9.442;2023-03-31T02:04:58;94005.97;;;8.06;100.00
11487;BME280;10510;47.942;9.442;2023-03-31T02:07:11;94004.22;;;8.06;100.00
11487;BME280;10510;47.942;9.442;2023-03-31T02:09:16;93995.78;;;8.04;100.00
11487;BME280;10510;47.942;9.442;2023-03-31T02:11:17;93992.53;;;8.02;100.00
11487;BME280;10510;47.942;9.442;2023-03-31T02:13:20;93973.72;;;8.00;100.00
11487;BME280;10510;47.942;9.442;2023-03-31T02:15:28;93965.28;;;7.98;100.00
11487;BME280;10510;47.942;9.442;2023-03-31T02:17:30;93963.03;;;7.95;100.00
11487;BME280;10510;47.942;9.442;2023-03-31T02:19:34;93953.59;;;7.94;100.00
11487;BME280;10510;47.942;9.442;2023-03-31T02:21:39;93950.41;;;7.92;100.00
11487;BME280;10510;47.942;9.442;2023-03-31T02:23:39;93936.59;;;7.91;100.00
11487;BME280;10510;47.942;9.442;2023-03-31T02:25:46;93940.16;;;7.90;100.00
11487;BME280;10510;47.942;9.442;2023-03-31T02:27:53;93936.97;;;7.88;100.00
11487;BME280;10510;47.942;9.442;2023-03-31T02:29:56;93927.53;;;7.87;100.00
11487;BME280;10510;47.942;9.442;2023-03-31T02:32:09;93927.53;;;7.87;100.00
11487;BME280;10510;47.942;9.442;2023-03-31T02:34:11;93936.13;;;7.88;100.00
11487;BME280;10510;47.942;9.442;2023-03-31T02:36:11;93926.72;;;7.87;100.00
11487;BME280;10510;47.942;9.442;2023-03-31T02:38:12;93934.38;;;7.88;100.00
11487;BME280;10510;47.942;9.442;2023-03-31T02:40:20;93917.91;;;7.88;100.00
11487;BME280;10510;47.942;9.442;2023-03-31T02:42:21;93917.13;;;7.87;100.00
11487;BME280;10510;47.942;9.442;2023-03-31T02:44:22;93913.72;;;7.87;100.00
11487;BME280;10510;47.942;9.442;2023-03-31T02:46:23;93907.50;;;7.88;100.00
11487;BME280;10510;47.942;9.442;2023-03-31T02:48:27;93903.50;;;7.85;100.00
11487;BME280;10510;47.942;9.442;2023-03-31T02:50:35;93900.06;;;7.85;100.00
11487;BME280;10510;47.942;9.442;2023-03-31T02:53:06;93909.69;;;7.84;100.00
11487;BME280;10510;47.942;9.442;2023-03-31T03:02:04;93875.44;;;7.81;100.00
11487;BME280;10510;47.942;9.442;2023-03-31T03:14:02;93855.44;;;7.81;100.00
11487;BME280;10510;47.942;9.442;2023-03-31T03:16:10;93848.41;;;7.82;100.00
11487;BME280;10510;47.942;9.442;2023-03-31T03:18:18;93804.19;;;7.82;100.00
11487;BME280;10510;47.942;9.442;2023-03-31T03:20:20;93820.81;;;7.81;100.00
11487;BME280;10510;47.942;9.442;2023-03-31T03:22:21;93817.41;;;7.80;100.00
11487;BME280;10510;47.942;9.442;2023-03-31T03:24:22;93817.56;;;7.79;100.00
11487;BME280;10510;47.942;9.442;2023-03-31T03:26:22;93802.16;;;7.77;100.00
11487;BME280;10510;47.942;9.442;2023-03-31T03:28:23;93809.16;;;7.77;100.00
11487;BME280;10510;47.942;9.442;2023-03-31T03:30:23;93800.13;;;7.72;100.00
11487;BME280;10510;47.942;9.442;2023-03-31T03:32:23;93791.88;;;7.69;100.00
11487;BME280;10510;47.942;9.442;2023-03-31T03:34:24;93779.88;;;7.68;100.00
11487;BME280;10510;47.942;9.442;2023-03-31T03:36:26;93781.22;;;7.64;100.00
11487;BME280;10510;47.942;9.442;2023-03-31T03:38:26;93791.19;;;7.60;100.00
11487;BME280;10510;47.942;9.442;2023-03-31T03:40:26;93782.97;;;7.57;100.00
11487;BME280;10510;47.942;9.442;2023-03-31T03:42:26;93784.13;;;7.54;100.00
11487;BME280;10510;47.942;9.442;2023-03-31T03:44:27;93782.09;;;7.49;100.00
11487;BME280;10510;47.942;9.442;2023-03-31T03:46:27;93780.84;;;7.45;100.00
11487;BME280;10510;47.942;9.442;2023-03-31T03:48:27;93778.78;;;7.41;100.00
11487;BME280;10510;47.942;9.442;2023-03-31T03:50:28;93767.53;;;7.34;100.00
11487;BME280;10510;47.942;9.442;2023-03-31T03:52:28;93761.09;;;7.30;100.00
11487;BME280;10510;47.942;9.442;2023-03-31T03:54:28;93753.84;;;7.25;100.00
11487;BME280;10510;47.942;9.442;2023-03-31T03:56:29;93746.59;;;7.20;100.00
11487;BME280;10510;47.942;9.442;2023-03-31T03:58:30;93755.38;;;7.19;100.00
11487;BME280;10510;47.942;9.442;2023-03-31T04:00:30;93747.78;;;7.18;100.00
11487;BME280;10510;47.942;9.442;2023-03-31T04:02:30;93742.13;;;7.14;100.00
11487;BME280;10510;47.942;9.442;2023-03-31T04:04:31;93726.91;;;7.11;100.00
11487;BME280;10510;47.942;9.442;2023-03-31T04:06:31;93722.88;;;7.09;100.00
11487;BME280;10510;47.942;9.442;2023-03-31T04:08:31;93716.88;;;7.08;100.00
11487;BME280;10510;47.942;9.442;2023-03-31T04:10:31;93705.88;;;7.06;100.00
11487;BME280;10510;47.942;9.442;2023-03-31T04:12:35;93707.06;;;7.03;100.00
11487;BME280;10510;47.942;9.442;2023-03-31T04:14:35;93686.28;;;7.03;100.00
11487;BME280;10510;47.942;9.442;2023-03-31T04:16:35;93676.84;;;7.02;100.00
11487;BME280;10510;47.942;9.442;2023-03-31T04:18:37;93669.25;;;7.01;100.00
11487;BME280;10510;47.942;9.442;2023-03-31T04:20:41;93660.66;;;7.00;100.00
11487;BME280;10510;47.942;9.442;2023-03-31T04:22:44;93656.25;;;7.01;100.00
11487;BME280;10510;47.942;9.442;2023-03-31T04:24:46;93651.88;;;7.01;100.00
11487;BME280;10510;47.942;9.442;2023-03-31T04:26:51;93647.66;;;7.00;100.00
11487;BME280;10510;47.942;9.442;2023-03-31T04:28:51;93639.25;;;6.98;100.00
11487;BME280;10510;47.942;9.442;2023-03-31T04:30:52;93648.84;;;6.98;100.00
11487;BME280;10510;47.942;9.442;2023-03-31T04:32:59;93645.63;;;6.96;100.00
11487;BME280;10510;47.942;9.442;2023-03-31T04:35:00;93633.00;;;6.93;100.00
11487;BME280;10510;47.942;9.442;2023-03-31T04:37:02;93624.41;;;6.92;100.00
11487;BME280;10510;47.942;9.442;2023-03-31T04:39:02;93618.41;;;6.92;100.00
11487;BME280;10510;47.942;9.442;2023-03-31T04:41:03;93617.41;;;6.93;100.00
11487;BME280;10510;47.942;9.442;2023-03-31T04:43:03;93607.03;;;6.93;100.00
11487;BME280;10510;47.942;9.442;2023-03-31T04:45:04;93606.66;;;6.96;100.00
11487;BME280;10510;47.942;9.442;2023-03-31T04:47:04;93595.09;;;6.98;100.00
11487;BME280;10510;47.942;9.442;2023-03-31T04:49:05;93600.09;;;7.00;100.00
11487;BME280;10510;47.942;9.442;2023-03-31T04:51:07;93601.72;;;7.01;100.00
11487;BME280;10510;47.942;9.442;2023-03-31T04:53:08;93599.75;;;7.03;100.00
11487;BME280;10510;47.942;9.442;2023-03-31T04:55:08;93581.34;;;7.04;100.00
11487;BME280;10510;47.942;9.442;2023-03-31T04:57:09;93576.78;;;7.07;100.00
11487;BME280;10510;47.942;9.442;2023-03-31T04:59:10;93562.63;;;7.09;100.00
11487;BME280;10510;47.942;9.442;2023-03-31T05:01:10;93547.03;;;7.09;100.00
11487;BME280;10510;47.942;9.442;2023-03-31T05:03:12;93540.81;;;7.10;100.00
11487;BME280;10510;47.942;9.442;2023-03-31T05:05:13;93525.03;;;7.12;100.00
11487;BME280;10510;47.942;9.442;2023-03-31T05:07:13;93509.09;;;7.15;100.00
11487;BME280;10510;47.942;9.442;2023-03-31T05:09:13;93510.69;;;7.16;100.00
11487;BME280;10510;47.942;9.442;2023-03-31T05:11:13;93526.06;;;7.17;100.00
11487;BME280;10510;47.942;9.442;2023-03-31T05:13:14;93520.50;;;7.20;100.00
11487;BME280;10510;47.942;9.442;2023-03-31T05:15:15;93520.31;;;7.22;100.00
11487;BME280;10510;47.942;9.442;2023-03-31T05:17:15;93514.75;;;7.25;100.00
11487;BME280;10510;47.942;9.442;2023-03-31T05:19:16;93517.16;;;7.26;100.00
11487;BME280;10510;47.942;9.442;2023-03-31T05:21:18;93505.56;;;7.29;100.00
11487;BME280;10510;47.942;9.442;2023-03-31T05:23:19;93506.38;;;7.30;100.00
11487;BME280;10510;47.942;9.442;2023-03-31T05:25:20;93509.59;;;7.32;100.00
11487;BME280;10510;47.942;9.442;2023-03-31T05:27:21;93527.59;;;7.33;100.00
11487;BME280;10510;47.942;9.442;2023-03-31T05:29:22;93523.81;;;7.36;100.00
11487;BME280;10510;47.942;9.442;2023-03-31T05:31:22;93525.41;;;7.37;100.00
11487;BME280;10510;47.942;9.442;2023-03-31T05:33:22;93522.44;;;7.40;100.00
11487;BME280;10510;47.942;9.442;2023-03-31T05:35:24;93520.47;;;7.42;100.00
11487;BME280;10510;47.942;9.442;2023-03-31T05:37:25;93526.25;;;7.44;100.00
11487;BME280;10510;47.942;9.442;2023-03-31T05:39:26;93532.88;;;7.46;100.00
11487;BME280;10510;47.942;9.442;2023-03-31T05:41:31;93534.50;;;7.47;100.00
11487;BME280;10510;47.942;9.442;2023-03-31T05:43:32;93527.50;;;7.48;100.00
11487;BME280;10510;47.942;9.442;2023-03-31T05:45:32;93533.31;;;7.50;100.00
11487;BME280;10510;47.942;9.442;2023-03-31T05:47:32;93549.72;;;7.50;100.00
11487;BME280;10510;47.942;9.442;2023-03-31T05:49:33;93571.09;;;7.53;100.00
11487;BME280;10510;47.942;9.442;2023-03-31T05:51:33;93582.34;;;7.53;100.00
11487;BME280;10510;47.942;9.442;2023-03-31T05:53:34;93580.31;;;7.55;100.00
11487;BME280;10510;47.942;9.442;2023-03-31T05:55:37;93568.94;;;7.56;100.00
11487;BME280;10510;47.942;9.442;2023-03-31T05:57:38;93567.16;;;7.57;100.00
11487;BME280;10510;47.942;9.442;2023-03-31T05:59:38;93557.34;;;7.59;100.00
11487;BME280;10510;47.942;9.442;2023-03-31T06:01:39;93562.53;;;7.59;100.00
11487;BME280;10510;47.942;9.442;2023-03-31T06:03:40;93553.13;;;7.58;100.00
11487;BME280;10510;47.942;9.442;2023-03-31T06:05:46;93539.34;;;7.57;100.00
11487;BME280;10510;47.942;9.442;2023-03-31T06:07:46;93549.38;;;7.60;100.00
11487;BME280;10510;47.942;9.442;2023-03-31T06:09:47;93550.16;;;7.61;100.00
11487;BME280;10510;47.942;9.442;2023-03-31T06:11:47;93542.78;;;7.64;100.00
11487;BME280;10510;47.942;9.442;2023-03-31T06:13:48;93527.00;;;7.66;100.00
11487;BME280;10510;47.942;9.442;2023-03-31T06:15:59;93529.22;;;7.69;100.00
11487;BME280;10510;47.942;9.442;2023-03-31T06:17:59;93512.22;;;7.73;100.00
11487;BME280;10510;47.942;9.442;2023-03-31T06:20:00;93509.44;;;7.74;100.00
11487;BME280;10510;47.942;9.442;2023-03-31T06:22:00;93501.03;;;7.79;100.00
11487;BME280;10510;47.942;9.442;2023-03-31T06:24:00;93499.84;;;7.82;100.00
11487;BME280;10510;47.942;9.442;2023-03-31T06:26:03;93491.66;;;7.85;100.00
11487;BME280;10510;47.942;9.442;2023-03-31T06:28:03;93478.88;;;7.90;100.00
11487;BME280;10510;47.942;9.442;2023-03-31T06:30:05;93471.28;;;7.95;100.00
11487;BME280;10510;47.942;9.442;2023-03-31T06:32:06;93463.72;;;8.00;100.00
11487;BME280;10510;47.942;9.442;2023-03-31T06:34:06;93469.91;;;8.06;100.00
11487;BME280;10510;47.942;9.442;2023-03-31T06:36:07;93449.53;;;8.09;100.00
11487;BME280;10510;47.942;9.442;2023-03-31T06:38:08;93451.53;;;8.14;100.00
11487;BME280;10510;47.942;9.442;2023-03-31T06:40:08;93472.34;;;8.20;100.00
11487;BME280;10510;47.942;9.442;2023-03-31T06:42:09;93464.19;;;8.30;100.00
11487;BME280;10510;47.942;9.442;2023-03-31T06:44:09;93466.78;;;8.37;100.00
11487;BME280;10510;47.942;9.442;2023-03-31T06:46:10;93466.25;;;8.41;100.00
11487;BME280;10510;47.942;9.442;2023-03-31T06:48:10;93464.44;;;8.49;100.00
11487;BME280;10510;47.942;9.442;2023-03-31T06:50:10;93459.44;;;8.54;100.00
11487;BME280;10510;47.942;9.442;2023-03-31T06:52:11;93455.81;;;8.61;100.00
11487;BME280;10510;47.942;9.442;2023-03-31T06:54:11;93452.41;;;8.68;100.00
11487;BME280;10510;47.942;9.442;2023-03-31T06:56:11;93459.63;;;8.79;100.00
11487;BME280;10510;47.942;9.442;2023-03-31T06:58:12;93461.44;;;8.85;100.00
11487;BME280;10510;47.942;9.442;2023-03-31T07:00:13;93459.44;;;8.94;100.00
11487;BME280;10510;47.942;9.442;2023-03-31T07:02:13;93458.44;;;9.01;100.00
11487;BME280;10510;47.942;9.442;2023-03-31T07:04:13;93459.22;;;9.08;100.00
11487;BME280;10510;47.942;9.442;2023-03-31T07:06:14;93452.00;;;9.10;100.00
11487;BME280;10510;47.942;9.442;2023-03-31T07:08:14;93451.41;;;9.15;100.00
11487;BME280;10510;47.942;9.442;2023-03-31T07:10:16;93458.81;;;9.18;100.00
11487;BME280;10510;47.942;9.442;2023-03-31T07:12:16;93448.19;;;9.20;100.00
11487;BME280;10510;47.942;9.442;2023-03-31T07:14:17;93459.22;;;9.22;100.00
11487;BME280;10510;47.942;9.442;2023-03-31T07:16:18;93455.59;;;9.23;100.00
11487;BME280;10510;47.942;9.442;2023-03-31T07:18:18;93465.63;;;9.26;100.00
11487;BME280;10510;47.942;9.442;2023-03-31T07:20:19;93486.69;;;9.31;100.00
11487;BME280;10510;47.942;9.442;2023-03-31T07:22:19;93488.88;;;9.47;100.00
11487;BME280;10510;47.942;9.442;2023-03-31T07:24:20;93494.22;;;9.66;100.00
11487;BME280;10510;47.942;9.442;2023-03-31T07:26:20;93509.63;;;9.81;100.00
11487;BME280;10510;47.942;9.442;2023-03-31T07:28:21;93518.88;;;9.83;100.00
11487;BME280;10510;47.942;9.442;2023-03-31T07:30:21;93537.94;;;9.84;100.00
11487;BME280;10510;47.942;9.442;2023-03-31T07:32:22;93550.97;;;9.84;100.00
11487;BME280;10510;47.942;9.442;2023-03-31T07:34:22;93619.81;;;9.76;100.00
11487;BME280;10510;47.942;9.442;2023-03-31T07:36:22;93629.28;;;9.64;100.00
11487;BME280;10510;47.942;9.442;2023-03-31T07:38:23;93631.88;;;9.44;100.00
11487;BME280;10510;47.942;9.442;2023-03-31T07:40:25;93633.28;;;9.20;100.00
11487;BME280;10510;47.942;9.442;2023-03-31T07:42:26;93623.63;;;9.00;100.00
11487;BME280;10510;47.942;9.442;2023-03-31T07:44:26;93615.56;;;8.82;100.00
11487;BME280;10510;47.942;9.442;2023-03-31T07:46:27;93628.56;;;8.69;100.00
11487;BME280;10510;47.942;9.442;2023-03-31T07:48:28;93627.53;;;8.63;100.00
11487;BME280;10510;47.942;9.442;2023-03-31T07:50:28;93624.72;;;8.64;100.00
11487;BME280;10510;47.942;9.442;2023-03-31T07:52:28;93597.72;;;8.72;100.00
11487;BME280;10510;47.942;9.442;2023-03-31T07:54:29;93577.88;;;8.71;100.00
11487;BME280;10510;47.942;9.442;2023-03-31T07:56:29;93557.00;;;8.64;100.00
11487;BME280;10510;47.942;9.442;2023-03-31T07:58:29;93535.75;;;8.61;100.00
11487;BME280;10510;47.942;9.442;2023-03-31T08:00:30;93540.19;;;8.60;100.00
11487;BME280;10510;47.942;9.442;2023-03-31T08:02:30;93529.19;;;8.72;100.00
11487;BME280;10510;47.942;9.442;2023-03-31T08:04:31;93532.81;;;9.04;100.00
11487;BME280;10510;47.942;9.442;2023-03-31T08:06:31;93543.22;;;9.37;100.00
11487;BME280;10510;47.942;9.442;2023-03-31T08:08:31;93529.16;;;9.65;100.00
11487;BME280;10510;47.942;9.442;2023-03-31T08:10:31;93526.47;;;9.91;100.00
11487;BME280;10510;47.942;9.442;2023-03-31T08:12:32;93527.16;;;10.25;100.00
11487;BME280;10510;47.942;9.442;2023-03-31T08:14:32;93516.97;;;10.55;100.00
11487;BME280;10510;47.942;9.442;2023-03-31T08:16:32;93514.50;;;10.67;100.00
11487;BME280;10510;47.942;9.442;2023-03-31T08:18:33;93529.31;;;10.73;100.00
11487;BME280;10510;47.942;9.442;2023-03-31T08:20:33;93538.25;;;10.59;100.00
11487;BME280;10510;47.942;9.442;2023-03-31T08:22:33;93550.22;;;10.35;100.00
11487;BME280;10510;47.942;9.442;2023-03-31T08:24:33;93554.50;;;10.16;100.00
11487;BME280;10510;47.942;9.442;2023-03-31T08:26:33;93575.03;;;9.99;100.00
11487;BME280;10510;47.942;9.442;2023-03-31T08:28:34;93571.09;;;9.76;100.00
11487;BME280;10510;47.942;9.442;2023-03-31T08:30:36;93571.88;;;9.64;100.00
11487;BME280;10510;47.942;9.442;2023-03-31T08:32:37;93553.19;;;9.87;100.00
11487;BME280;10510;47.942;9.442;2023-03-31T08:34:37;93555.88;;;10.25;100.00
11487;BME280;10510;47.942;9.442;2023-03-31T08:36:37;93532.81;;;10.60;100.00
11487;BME280;10510;47.942;9.442;2023-03-31T08:38:40;93508.72;;;10.90;100.00
11487;BME280;10510;47.942;9.442;2023-03-31T08:40:48;93495.38;;;11.23;100.00
11487;BME280;10510;47.942;9.442;2023-03-31T08:42:52;93490.72;;;11.50;100.00
11487;BME280;10510;47.942;9.442;2023-03-31T08:45:11;93497.28;;;11.78;100.00
11487;BME280;10510;47.942;9.442;2023-03-31T08:47:19;93488.72;;;12.08;100.00
11487;BME280;10510;47.942;9.442;2023-03-31T08:49:21;93497.47;;;12.32;100.00
11487;BME280;10510;47.942;9.442;2023-03-31T08:51:36;93497.34;;;12.57;100.00
11487;BME280;10510;47.942;9.442;2023-03-31T08:53:43;93497.78;;;12.84;100.00
11487;BME280;10510;47.942;9.442;2023-03-31T08:55:49;93499.31;;;13.03;100.00
11487;BME280;10510;47.942;9.442;2023-03-31T08:58:05;93496.91;;;13.13;100.00
11487;BME280;10510;47.942;9.442;2023-03-31T09:00:15;93497.38;;;13.22;100.00
11487;BME280;10510;47.942;9.442;2023-03-31T09:02:29;93489.97;;;13.19;100.00
11487;BME280;10510;47.942;9.442;2023-03-31T09:04:45;93476.22;;;13.35;100.00
11487;BME280;10510;47.942;9.442;2023-03-31T09:06:57;93489.56;;;13.46;100.00
11487;BME280;10510;47.942;9.442;2023-03-31T09:09:09;93482.25;;;13.59;100.00
11487;BME280;10510;47.942;9.442;2023-03-31T09:11:11;93477.53;;;13.73;100.00
11487;BME280;10510;47.942;9.442;2023-03-31T09:15:50;93470.75;;;14.13;100.00
11487;BME280;10510;47.942;9.442;2023-03-31T09:17:54;93473.78;;;14.33;100.00
11487;BME280;10510;47.942;9.442;2023-03-31T09:20:33;93465.59;;;14.46;100.00
11487;BME280;10510;47.942;9.442;2023-03-31T09:22:41;93454.09;;;14.64;100.00
11487;BME280;10510;47.942;9.442;2023-03-31T09:24:49;93454.41;;;14.80;100.00
11487;BME280;10510;47.942;9.442;2023-03-31T09:26:54;93464.28;;;14.89;100.00
11487;BME280;10510;47.942;9.442;2023-03-31T09:28:58;93461.06;;;14.87;100.00
11487;BME280;10510;47.942;9.442;2023-03-31T09:31:03;93463.31;;;14.95;100.00
11487;BME280;10510;47.942;9.442;2023-03-31T09:33:14;93460.22;;;14.98;100.00
11487;BME280;10510;47.942;9.442;2023-03-31T09:35:18;93450.31;;;15.06;100.00
11487;BME280;10510;47.942;9.442;2023-03-31T09:37:20;93463.47;;;15.06;100.00
11487;BME280;10510;47.942;9.442;2023-03-31T09:39:21;93465.25;;;15.17;100.00
11487;BME280;10510;47.942;9.442;2023-03-31T09:41:21;93456.94;;;15.42;100.00
11487;BME280;10510;47.942;9.442;2023-03-31T09:43:24;93446.91;;;15.22;100.00
11487;BME280;10510;47.942;9.442;2023-03-31T09:45:26;93441.66;;;14.88;100.00
11487;BME280;10510;47.942;9.442;2023-03-31T09:47:38;93459.63;;;14.63;100.00
11487;BME280;10510;47.942;9.442;2023-03-31T09:49:44;93473.53;;;14.35;100.00
11487;BME280;10510;47.942;9.442;2023-03-31T09:51:47;93488.84;;;13.85;100.00
11487;BME280;10510;47.942;9.442;2023-03-31T09:53:52;93427.50;;;13.39;100.00
11487;BME280;10510;47.942;9.442;2023-03-31T09:56:00;93450.03;;;12.93;100.00
11487;BME280;10510;47.942;9.442;2023-03-31T09:58:05;93457.28;;;12.68;100.00
11487;BME280;10510;47.942;9.442;2023-03-31T10:02:36;93446.50;;;12.16;100.00
11487;BME280;10510;47.942;9.442;2023-03-31T10:04:44;93450.41;;;11.95;100.00
11487;BME280;10510;47.942;9.442;2023-03-31T10:06:45;93464.13;;;11.90;100.00
11487;BME280;10510;47.942;9.442;2023-03-31T10:09:00;93457.97;;;12.03;100.00
11487;BME280;10510;47.942;9.442;2023-03-31T10:13:07;93452.34;;;11.81;100.00
11487;BME280;10510;47.942;9.442;2023-03-31T10:15:20;93487.66;;;11.72;100.00
11487;BME280;10510;47.942;9.442;2023-03-31T10:17:22;93450.09;;;11.66;100.00
11487;BME280;10510;47.942;9.442;2023-03-31T10:19:25;93453.50;;;11.67;100.00
11487;BME280;10510;47.942;9.442;2023-03-31T10:21:34;93450.53;;;11.63;100.00
11487;BME280;10510;47.942;9.442;2023-03-31T10:23:35;93418.41;;;11.56;100.00
11487;BME280;10510;47.942;9.442;2023-03-31T10:25:35;93424.13;;;11.46;100.00
11487;BME280;10510;47.942;9.442;2023-03-31T10:27:38;93413.16;;;11.37;100.00
11487;BME280;10510;47.942;9.442;2023-03-31T10:29:40;93402.03;;;11.24;100.00
11487;BME280;10510;47.942;9.442;2023-03-31T10:31:40;93412.97;;;11.14;100.00
11487;BME280;10510;47.942;9.442;2023-03-31T10:33:48;93398.75;;;11.10;100.00
11487;BME280;10510;47.942;9.442;2023-03-31T10:35:54;93422.72;;;11.07;100.00
11487;BME280;10510;47.942;9.442;2023-03-31T10:37:58;93401.25;;;11.60;100.00
11487;BME280;10510;47.942;9.442;2023-03-31T10:40:04;93396.19;;;12.25;100.00
11487;BME280;10510;47.942;9.442;2023-03-31T10:42:19;93382.53;;;12.89;100.00
11487;BME280;10510;47.942;9.442;2023-03-31T10:44:32;93369.53;;;13.41;100.00
11487;BME280;10510;47.942;9.442;2023-03-31T10:48:41;93368.41;;;14.18;100.00
11487;BME280;10510;47.942;9.442;2023-03-31T10:50:43;93360.19;;;14.60;100.00
11487;BME280;10510;47.942;9.442;2023-03-31T10:52:47;93360.66;;;14.90;100.00
11487;BME280;10510;47.942;9.442;2023-03-31T10:54:51;93362.63;;;15.17;100.00
11487;BME280;10510;47.942;9.442;2023-03-31T10:56:55;93347.88;;;15.38;100.00
11487;BME280;10510;47.942;9.442;2023-03-31T11:05:55;93327.91;;;15.59;100.00
11487;BME280;10510;47.942;9.442;2023-03-31T11:12:28;93348.16;;;14.35;100.00
11487;BME280;10510;47.942;9.442;2023-03-31T11:19:03;93342.38;;;13.76;100.00
11487;BME280;10510;47.942;9.442;2023-03-31T11:25:43;93329.38;;;13.29;100.00
11487;BME280;10510;47.942;9.442;2023-03-31T11:28:10;93329.72;;;13.21;100.00
11487;BME280;10510;47.942;9.442;2023-03-31T11:30:27;93328.84;;;13.03;100.00
11487;BME280;10510;47.942;9.442;2023-03-31T11:35:02;93338.06;;;12.82;100.00
11487;BME280;10510;47.942;9.442;2023-03-31T11:39:49;93336.59;;;12.75;100.00
11487;BME280;10510;47.942;9.442;2023-03-31T11:41:57;93318.13;;;12.69;100.00
11487;BME280;10510;47.942;9.442;2023-03-31T11:44:02;93332.38;;;12.62;100.00
11487;BME280;10510;47.942;9.442;2023-03-31T11:48:51;93342.41;;;12.53;100.00
11487;BME280;10510;47.942;9.442;2023-03-31T11:50:53;93348.97;;;12.44;100.00
11487;BME280;10510;47.942;9.442;2023-03-31T11:53:09;93353.06;;;12.40;100.00
11487;BME280;10510;47.942;9.442;2023-03-31T11:55:20;93354.78;;;12.34;100.00
11487;BME280;10510;47.942;9.442;2023-03-31T11:57:41;93359.53;;;12.25;100.00
11487;BME280;10510;47.942;9.442;2023-03-31T11:59:47;93352.91;;;12.23;100.00
11487;BME280;10510;47.942;9.442;2023-03-31T12:01:59;93346.53;;;12.19;100.00
11487;BME280;10510;47.942;9.442;2023-03-31T12:04:07;93333.19;;;12.20;100.00
11487;BME280;10510;47.942;9.442;2023-03-31T12:06:12;93314.00;;;12.26;100.00